Time;durP1;ratioP1;P1;durP2;ratioP2;P2;SDS_P1;SDS_P2;PMS_P1;PMS_P2;Temp;Humidity;BMP_temperature;BMP_pressure;BME280_temperature;BME280_humidity;BME280_pressure;Samples;Min_cycle;Max_cycle;Signal;HPM_P1;HPM_P2
2022/04/14 00:00:28;;;;;;;;;;;13.10;99.70;;;;;;5086873;28;19923;-71
2022/04/14 00:02:53;;;;;;;;;;;13.10;99.80;;;;;;5056004;28;20416;-70
2022/04/14 00:05:19;;;;;;;;;;;13.00;99.80;;;;;;5089049;28;19908;-70
2022/04/14 00:07:45;;;;;;;;;;;13.00;99.90;;;;;;5090225;28;20371;-70
2022/04/14 00:10:14;;;;;;;;;;;13.00;99.90;;;;;;5089141;28;19915;-70
2022/04/14 00:12:40;;;;;;;;;;;13.00;99.90;;;;;;5073284;28;19930;-69
2022/04/14 00:15:06;;;;;;;;;;;13.00;99.90;;;;;;5056161;28;19908;-70
2022/04/14 00:17:35;;;;;;;;;;;12.90;99.90;;;;;;5087895;28;19950;-70
2022/04/14 00:20:02;;;;;;;;;;;12.90;99.90;;;;;;5069919;28;19915;-70
2022/04/14 00:22:27;;;;;;;;;;;12.90;99.90;;;;;;5089264;28;19995;-70
2022/04/14 00:24:53;;;;;;;;;;;12.90;99.90;;;;;;5087072;28;20002;-71
2022/04/14 00:27:19;;;;;;;;;;;13.30;99.90;;;;;;5070673;28;20007;-71
2022/04/14 00:29:46;;;;;;;;;;;13.60;99.90;;;;;;5088291;28;19998;-71
2022/04/14 00:32:11;;;;;;;23.77;13.68;;;13.70;99.90;;;;;;5089090;28;20417;-70
2022/04/14 00:34:37;;;;;;;22.27;13.17;;;13.80;99.90;;;;;;5089304;28;20880;-71
2022/04/14 00:37:03;;;;;;;23.97;13.87;;;13.90;99.90;;;;;;5087993;28;20863;-71
2022/04/14 00:39:28;;;;;;;24.00;13.95;;;13.90;99.80;;;;;;5069976;28;20441;-71
2022/04/14 00:41:54;;;;;;;23.53;14.07;;;14.00;99.60;;;;;;5067998;28;20927;-70
2022/04/14 00:44:19;;;;;;;24.60;13.60;;;14.00;99.40;;;;;;5088377;28;20398;-71
2022/04/14 00:46:45;;;;;;;23.00;13.98;;;14.00;99.30;;;;;;5087673;28;20408;-71
2022/04/14 00:49:11;;;;;;;23.03;14.30;;;14.00;99.20;;;;;;5090131;28;20413;-71
2022/04/14 00:51:37;;;;;;;21.90;13.70;;;14.10;99.10;;;;;;5087189;28;21529;-70
2022/04/14 00:54:02;;;;;;;25.67;13.17;;;14.10;99.00;;;;;;5086953;28;20413;-70
2022/04/14 00:56:28;;;;;;;21.30;12.53;;;14.00;98.80;;;;;;5086124;28;20414;-71
2022/04/14 00:58:54;;;;;;;20.50;12.93;;;14.00;98.80;;;;;;5086306;28;20442;-70
2022/04/14 01:01:20;;;;;;;21.55;12.90;;;14.00;98.80;;;;;;5087333;28;20450;-71
2022/04/14 01:03:47;;;;;;;23.33;13.25;;;13.90;98.80;;;;;;5070362;28;20394;-70
2022/04/14 01:06:19;;;;;;;26.70;14.80;;;13.90;98.90;;;;;;5087246;28;20895;-70
2022/04/14 01:09:16;;;;;;;22.23;14.75;;;13.90;99.00;;;;;;5082111;28;20405;-69
2022/04/14 01:11:31;;;;;;;27.65;15.55;;;13.90;99.00;;;;;;5085512;28;20409;-69
2022/04/14 01:13:57;;;;;;;25.92;15.85;;;13.90;99.10;;;;;;5087276;28;20409;-69
2022/04/14 01:16:22;;;;;;;27.63;15.33;;;13.90;99.10;;;;;;5051987;28;20732;-69
2022/04/14 01:18:48;;;;;;;27.25;15.65;;;13.90;99.10;;;;;;5069650;28;20410;-69
2022/04/14 01:21:14;;;;;;;28.43;15.63;;;13.90;99.10;;;;;;5068984;28;20393;-70
2022/04/14 01:23:44;;;;;;;26.50;15.60;;;13.90;99.00;;;;;;5086631;28;20426;-69
2022/04/14 01:26:11;;;;;;;27.58;16.25;;;13.80;99.10;;;;;;5084512;28;21020;-69
2022/04/14 01:28:36;;;;;;;28.83;17.17;;;13.80;99.20;;;;;;5068670;28;20413;-70
2022/04/14 01:31:03;;;;;;;30.30;16.67;;;13.80;99.30;;;;;;5069052;28;20414;-70
2022/04/14 01:33:28;;;;;;;28.23;16.63;;;13.70;99.40;;;;;;5068055;28;20763;-70
2022/04/14 01:35:54;;;;;;;25.20;16.30;;;13.70;99.40;;;;;;5053759;28;20409;-69
2022/04/14 01:38:19;;;;;;;27.48;15.75;;;13.60;99.50;;;;;;5085015;28;22542;-69
2022/04/14 01:40:45;;;;;;;24.63;16.43;;;13.60;99.60;;;;;;5087435;28;20905;-70
2022/04/14 01:43:11;;;;;;;26.40;16.07;;;13.60;99.70;;;;;;5068117;28;20401;-70
2022/04/14 01:45:37;;;;;;;29.80;17.02;;;13.50;99.80;;;;;;5088085;28;20402;-70
2022/04/14 01:48:03;;;;;;;27.63;16.13;;;13.50;99.90;;;;;;5086677;28;21066;-69
2022/04/14 01:50:28;;;;;;;27.23;16.42;;;13.50;99.90;;;;;;5087452;28;20515;-70
2022/04/14 01:52:54;;;;;;;29.77;17.10;;;13.50;99.90;;;;;;5084599;28;20416;-69
2022/04/14 01:55:20;;;;;;;27.33;16.75;;;13.50;99.90;;;;;;5070566;28;20420;-69
2022/04/14 01:57:46;;;;;;;29.92;16.52;;;13.50;99.90;;;;;;5084954;28;20768;-71
2022/04/14 02:00:14;;;;;;;26.45;16.50;;;13.50;99.90;;;;;;5086439;28;20451;-70
2022/04/14 02:02:40;;;;;;;28.70;16.27;;;13.50;99.90;;;;;;5065201;28;20867;-70
2022/04/14 02:05:07;;;;;;;28.05;16.17;;;13.50;99.90;;;;;;5085977;28;20420;-70
2022/04/14 02:07:32;;;;;;;25.52;15.40;;;13.50;99.90;;;;;;5085050;28;20413;-70
2022/04/14 02:09:58;;;;;;;28.00;16.50;;;13.50;99.90;;;;;;5088407;28;20405;-70
2022/04/14 02:12:24;;;;;;;24.98;15.68;;;13.50;99.90;;;;;;5078989;28;20915;-69
2022/04/14 02:14:50;;;;;;;27.83;16.35;;;13.60;99.90;;;;;;5070227;28;20397;-69
2022/04/14 02:17:16;;;;;;;25.70;16.02;;;13.60;99.90;;;;;;5066020;28;20440;-70
2022/04/14 02:19:41;;;;;;;25.40;15.10;;;13.60;99.90;;;;;;5069314;28;20434;-70
2022/04/14 02:22:07;;;;;;;26.05;15.65;;;13.60;99.70;;;;;;5068867;28;20413;-67
2022/04/14 02:24:33;;;;;;;27.80;16.70;;;13.60;99.80;;;;;;5067857;28;20968;-68
2022/04/14 02:26:59;;;;;;;26.13;16.92;;;13.50;99.90;;;;;;5084926;28;20448;-68
2022/04/14 02:29:24;;;;;;;26.33;16.50;;;13.50;99.90;;;;;;5086094;28;20898;-68
2022/04/14 02:31:52;;;;;;;23.90;15.23;;;13.50;99.90;;;;;;5086046;28;20417;-69
2022/04/14 02:34:17;;;;;;;26.55;16.55;;;13.50;99.90;;;;;;5068834;28;20414;-69
2022/04/14 02:36:43;;;;;;;28.23;17.23;;;13.50;99.90;;;;;;5085810;28;20424;-69
2022/04/14 02:39:09;;;;;;;30.20;17.87;;;13.50;99.90;;;;;;5084649;28;20413;-70
2022/04/14 02:41:35;;;;;;;30.73;18.17;;;13.40;99.90;;;;;;5063702;28;20421;-70
2022/04/14 02:44:01;;;;;;;27.17;16.75;;;13.40;99.90;;;;;;5086172;28;20398;-71
2022/04/14 02:46:26;;;;;;;;;;;13.40;99.90;;;;;;5085811;28;20461;-69
2022/04/14 02:48:52;;;;;;;;;;;13.40;99.90;;;;;;5070444;28;20385;-69
2022/04/14 02:51:17;;;;;;;;;;;13.30;99.90;;;;;;5069909;28;19920;-68
2022/04/14 02:53:43;;;;;;;;;;;13.30;99.90;;;;;;5085703;28;19950;-69
2022/04/14 02:56:10;;;;;;;;;;;13.30;99.90;;;;;;5086730;28;19912;-68
2022/04/14 02:58:37;;;;;;;;;;;13.30;99.90;;;;;;5086971;28;20031;-68
2022/04/14 03:01:03;;;;;;;;;;;13.30;99.90;;;;;;5088758;28;19991;-67
2022/04/14 03:03:28;;;;;;;;;;;13.30;99.90;;;;;;5085772;28;19916;-69
2022/04/14 03:05:54;;;;;;;;;;;13.30;99.90;;;;;;5087616;28;19965;-68
2022/04/14 03:08:19;;;;;;;;;;;13.20;99.90;;;;;;5087038;28;19916;-68
2022/04/14 03:10:45;;;;;;;;;;;13.20;99.90;;;;;;5089558;28;19920;-68
2022/04/14 03:13:11;;;;;;;;;;;13.20;99.90;;;;;;5068370;28;19916;-69
2022/04/14 03:15:36;;;;;;;;;;;13.20;99.90;;;;;;5087770;28;19919;-69
2022/04/14 03:18:02;;;;;;;;;;;13.20;99.90;;;;;;5063866;28;20010;-68
2022/04/14 03:20:28;;;;;;;;;;;13.20;99.90;;;;;;5088435;28;19984;-68
2022/04/14 03:22:55;;;;;;;;;;;13.20;99.90;;;;;;5053665;28;19923;-69
2022/04/14 03:25:20;;;;;;;;;;;13.10;99.90;;;;;;5088964;28;19941;-68
2022/04/14 03:27:46;;;;;;;;;;;13.20;99.90;;;;;;5068722;28;19924;-67
2022/04/14 03:30:11;;;;;;;;;;;13.10;99.90;;;;;;5070543;28;19920;-67
2022/04/14 03:32:43;;;;;;;;;;;13.10;99.90;;;;;;5069046;28;19920;-67
2022/04/14 03:35:10;;;;;;;;;;;13.10;99.90;;;;;;5069981;28;20036;-69
2022/04/14 03:37:35;;;;;;;;;;;13.00;99.90;;;;;;5070983;28;19917;-68
2022/04/14 03:40:02;;;;;;;;;;;13.00;99.90;;;;;;5069972;28;19919;-67
2022/04/14 03:42:27;;;;;;;;;;;13.00;99.90;;;;;;5069133;28;19917;-67
2022/04/14 03:44:53;;;;;;;;;;;12.90;99.90;;;;;;5070557;28;19923;-67
2022/04/14 03:47:19;;;;;;;;;;;12.90;99.90;;;;;;5062420;28;19913;-67
2022/04/14 03:49:44;;;;;;;;;;;12.90;99.90;;;;;;5071075;28;19962;-67
2022/04/14 03:52:10;;;;;;;;;;;12.90;99.90;;;;;;5072371;28;20330;-69
2022/04/14 03:54:36;;;;;;;;;;;12.90;99.90;;;;;;5068359;28;19920;-69
2022/04/14 03:57:01;;;;;;;;;;;12.90;99.90;;;;;;5068863;28;19926;-68
2022/04/14 03:59:27;;;;;;;;;;;12.90;99.90;;;;;;5070401;28;19924;-68
2022/04/14 04:01:53;;;;;;;;;;;12.90;99.90;;;;;;5066523;28;20006;-68
2022/04/14 04:04:18;;;;;;;;;;;12.90;99.90;;;;;;5069865;28;20362;-68
2022/04/14 04:06:45;;;;;;;;;;;12.90;99.90;;;;;;5069410;28;19921;-68
2022/04/14 04:09:11;;;;;;;;;;;13.00;99.90;;;;;;5051485;28;20010;-69
2022/04/14 04:11:37;;;;;;;;;;;13.00;99.90;;;;;;5066093;28;20357;-68
2022/04/14 04:14:03;;;;;;;;;;;13.00;99.90;;;;;;5060454;28;20342;-69
2022/04/14 04:16:28;;;;;;;;;;;13.10;99.90;;;;;;5066281;28;19912;-67
2022/04/14 04:18:54;;;;;;;;;;;13.00;99.90;;;;;;5069022;28;19920;-68
2022/04/14 04:21:20;;;;;;;;;;;13.00;99.90;;;;;;5062880;28;19956;-67
2022/04/14 04:23:45;;;;;;;;;;;13.10;99.90;;;;;;5062560;28;19923;-67
2022/04/14 04:26:11;;;;;;;;;;;13.10;99.90;;;;;;5072867;28;19936;-67
2022/04/14 04:28:37;;;;;;;;;;;13.10;99.90;;;;;;5089543;28;19912;-68
2022/04/14 04:31:02;;;;;;;;;;;13.10;99.90;;;;;;5070325;28;19926;-68
2022/04/14 04:33:28;;;;;;;;;;;13.10;99.90;;;;;;5083494;28;20431;-69
2022/04/14 04:35:54;;;;;;;;;;;13.10;99.90;;;;;;5087761;28;20019;-68
2022/04/14 04:38:20;;;;;;;;;;;13.10;99.90;;;;;;5088386;28;19919;-68
2022/04/14 04:40:46;;;;;;;;;;;13.10;99.90;;;;;;5070055;28;19978;-68
2022/04/14 04:43:15;;;;;;;;;;;13.10;99.90;;;;;;5089108;28;19920;-69
2022/04/14 04:45:41;;;;;;;;;;;13.10;99.90;;;;;;5068930;28;19927;-69
2022/04/14 04:48:07;;;;;;;;;;;13.10;99.90;;;;;;5070451;28;19912;-69
2022/04/14 04:50:33;;;;;;;;;;;13.10;99.90;;;;;;5087705;28;20392;-67
2022/04/14 04:52:58;;;;;;;;;;;13.10;99.90;;;;;;5088041;28;19963;-70
2022/04/14 04:55:24;;;;;;;;;;;13.20;99.90;;;;;;5086620;28;20042;-68
2022/04/14 04:57:49;;;;;;;;;;;13.10;99.90;;;;;;5070120;28;19924;-72
2022/04/14 05:00:15;;;;;;;;;;;13.10;99.90;;;;;;5064649;28;19920;-68
2022/04/14 05:02:41;;;;;;;;;;;13.20;99.90;;;;;;5070199;28;19935;-71
2022/04/14 05:05:07;;;;;;;;;;;13.20;99.90;;;;;;5086569;28;19920;-71
2022/04/14 05:07:32;;;;;;;;;;;13.20;99.90;;;;;;5086991;28;19912;-71
2022/04/14 05:09:58;;;;;;;;;;;13.10;99.90;;;;;;5069896;28;20465;-70
2022/04/14 05:12:23;;;;;;;;;;;13.10;99.90;;;;;;5082609;28;19928;-70
2022/04/14 05:14:49;;;;;;;;;;;13.10;99.90;;;;;;5089279;28;19912;-70
2022/04/14 05:17:14;;;;;;;;;;;13.10;99.90;;;;;;5088330;28;19916;-70
2022/04/14 05:19:40;;;;;;;;;;;13.10;99.90;;;;;;5071535;28;20039;-70
2022/04/14 05:22:05;;;;;;;;;;;13.10;99.90;;;;;;5088710;28;19920;-71
2022/04/14 05:24:31;;;;;;;;;;;13.10;99.90;;;;;;5087445;28;19912;-69
2022/04/14 05:26:57;;;;;;;;;;;13.10;99.90;;;;;;5069615;28;19924;-70
2022/04/14 05:29:22;;;;;;;;;;;13.20;99.90;;;;;;5052911;28;19999;-70
2022/04/14 05:31:48;;;;;;;;;;;13.20;99.90;;;;;;5078822;28;19921;-70
2022/04/14 05:34:14;;;;;;;;;;;13.20;99.90;;;;;;5081949;28;19913;-71
2022/04/14 05:36:39;;;;;;;;;;;13.30;99.90;;;;;;5084946;28;20018;-70
2022/04/14 05:39:05;;;;;;;;;;;13.30;99.90;;;;;;5085286;28;19972;-69
2022/04/14 05:41:31;;;;;;;;;;;13.30;99.90;;;;;;5087604;28;20250;-69
2022/04/14 05:43:56;;;;;;;;;;;13.30;99.90;;;;;;5083941;28;19923;-70
2022/04/14 05:46:22;;;;;;;;;;;13.30;99.90;;;;;;5085388;28;20401;-70
2022/04/14 05:48:48;;;;;;;;;;;13.30;99.90;;;;;;5085356;28;19939;-70
2022/04/14 05:51:14;;;;;;;;;;;13.30;99.90;;;;;;5087116;28;20671;-72
2022/04/14 05:53:40;;;;;;;;;;;13.30;99.90;;;;;;5069825;28;20381;-71
2022/04/14 05:56:05;;;;;;;;;;;13.30;99.90;;;;;;5085909;28;19916;-70
2022/04/14 05:58:31;;;;;;;;;;;13.30;99.90;;;;;;5084309;28;19916;-72
2022/04/14 06:00:57;;;;;;;;;;;13.30;99.90;;;;;;5086087;28;19912;-71
2022/04/14 06:03:24;;;;;;;;;;;13.40;99.90;;;;;;5067215;28;19920;-70
2022/04/14 06:05:49;;;;;;;;;;;13.40;99.90;;;;;;5084182;28;20365;-70
2022/04/14 06:08:15;;;;;;;;;;;13.50;99.90;;;;;;5085239;28;19965;-71
2022/04/14 06:10:41;;;;;;;;;;;13.50;99.90;;;;;;5069702;28;20215;-70
2022/04/14 06:13:06;;;;;;;;;;;13.60;99.90;;;;;;5085326;28;19916;-70
2022/04/14 06:15:32;;;;;;;;;;;13.60;99.90;;;;;;5086668;28;19920;-70
2022/04/14 06:17:58;;;;;;;;;;;13.70;99.90;;;;;;5083137;28;20288;-70
2022/04/14 06:20:23;;;;;;;;;;;13.70;99.90;;;;;;5085817;28;20415;-70
2022/04/14 06:22:49;;;;;;;;;;;13.80;99.90;;;;;;5084211;28;19912;-71
2022/04/14 06:25:17;;;;;;;;;;;13.80;99.90;;;;;;5086399;28;19952;-70
2022/04/14 06:27:46;;;;;;;;;;;13.80;99.90;;;;;;5081622;28;20403;-70
2022/04/14 06:30:15;;;;;;;;;;;13.80;99.90;;;;;;5086268;28;19920;-71
2022/04/14 06:32:41;;;;;;;;;;;13.80;99.90;;;;;;5067148;28;19958;-70
2022/04/14 06:35:08;;;;;;;;;;;13.80;99.90;;;;;;5068306;28;20381;-70
2022/04/14 06:37:34;;;;;;;;;;;13.80;99.90;;;;;;5085710;28;20385;-70
2022/04/14 06:40:00;;;;;;;;;;;13.80;99.90;;;;;;5085916;28;20033;-71
2022/04/14 06:42:25;;;;;;;;;;;13.80;99.90;;;;;;5065891;28;20016;-70
2022/04/14 06:44:51;;;;;;;;;;;13.90;99.90;;;;;;5086042;28;19948;-69
2022/04/14 06:47:16;;;;;;;;;;;13.90;99.90;;;;;;5066355;28;20659;-70
2022/04/14 06:49:42;;;;;;;;;;;13.90;99.90;;;;;;5087673;28;20372;-70
2022/04/14 06:52:08;;;;;;;;;;;13.90;99.90;;;;;;5088122;28;19920;-71
2022/04/14 06:54:34;;;;;;;;;;;13.90;99.90;;;;;;5085903;28;19983;-70
2022/04/14 06:56:59;;;;;;;;;;;14.00;99.90;;;;;;5086460;28;20003;-70
2022/04/14 06:59:27;;;;;;;;;;;14.00;99.90;;;;;;5065454;28;19923;-71
2022/04/14 07:01:53;;;;;;;;;;;14.10;99.90;;;;;;5069864;28;20392;-71
2022/04/14 07:04:18;;;;;;;;;;;14.10;99.90;;;;;;5089831;28;20008;-70
2022/04/14 07:06:46;;;;;;;;;;;14.10;99.90;;;;;;5092986;28;19917;-67
2022/04/14 07:09:11;;;;;;;;;;;14.10;99.90;;;;;;5089393;28;19912;-70
2022/04/14 07:11:37;;;;;;;;;;;14.10;99.90;;;;;;5088247;28;19917;-71
2022/04/14 07:14:02;;;;;;;;;;;14.20;99.90;;;;;;5074595;28;19919;-68
2022/04/14 07:16:28;;;;;;;;;;;13.80;99.90;;;;;;5089449;28;19920;-71
2022/04/14 07:18:53;;;;;;;;;;;13.60;99.90;;;;;;5087620;28;19966;-71
2022/04/14 07:21:19;;;;;;;;;;;13.40;99.90;;;;;;5092009;28;19956;-72
2022/04/14 07:23:44;;;;;;;;;;;13.30;99.90;;;;;;5091227;28;19923;-70
2022/04/14 07:26:10;;;;;;;;;;;13.20;99.90;;;;;;5083538;28;19920;-71
2022/04/14 07:28:36;;;;;;;;;;;13.20;99.90;;;;;;5070353;28;19916;-72
2022/04/14 07:31:02;;;;;;;;;;;13.20;99.90;;;;;;5089382;28;19916;-71
2022/04/14 07:33:27;;;;;;;;;;;13.20;99.90;;;;;;5090003;28;20293;-72
2022/04/14 07:35:53;;;;;;;;;;;13.10;99.90;;;;;;5090458;28;19916;-71
2022/04/14 07:38:19;;;;;;;;;;;13.20;99.90;;;;;;5071740;28;19965;-72
2022/04/14 07:40:44;;;;;;;;;;;13.20;99.90;;;;;;5092202;28;19923;-71
2022/04/14 07:43:10;;;;;;;;;;;13.20;99.90;;;;;;5071697;28;20277;-71
2022/04/14 07:45:36;;;;;;;;;;;13.30;99.90;;;;;;5088261;28;19920;-72
2022/04/14 07:48:03;;;;;;;;;;;13.30;99.90;;;;;;5091642;28;19916;-71
2022/04/14 07:50:28;;;;;;;;;;;13.40;99.90;;;;;;5071247;28;20013;-71
2022/04/14 07:52:55;;;;;;;;;;;13.40;99.90;;;;;;5072435;28;19954;-71
2022/04/14 07:55:22;;;;;;;;;;;13.50;99.90;;;;;;5091925;28;19951;-71
2022/04/14 07:57:48;;;;;;;;;;;13.50;99.90;;;;;;5089896;28;20285;-71
2022/04/14 08:00:14;;;;;;;;;;;13.60;99.90;;;;;;5073135;28;19920;-71
2022/04/14 08:02:45;;;;;;;;;;;13.70;99.90;;;;;;5086292;28;20330;-71
2022/04/14 08:05:11;;;;;;;;;;;13.80;99.90;;;;;;5087477;28;19922;-72
2022/04/14 08:07:36;;;;;;;;;;;13.80;99.90;;;;;;5068945;28;19916;-72
2022/04/14 08:10:02;;;;;;;;;;;13.90;99.90;;;;;;5092451;28;19916;-71
2022/04/14 08:12:29;;;;;;;;;;;14.00;99.90;;;;;;5089432;28;19920;-71
2022/04/14 08:14:55;;;;;;;;;;;14.10;99.90;;;;;;5090140;28;19919;-72
2022/04/14 08:17:20;;;;;;;;;;;14.20;99.90;;;;;;5069949;28;19977;-71
2022/04/14 08:19:46;;;;;;;;;;;14.20;99.90;;;;;;5091226;28;20445;-72
2022/04/14 08:22:11;;;;;;;;;;;14.30;99.90;;;;;;5071479;28;20043;-71
2022/04/14 08:24:37;;;;;;;;;;;15.00;99.90;;;;;;5070228;28;20032;-71
2022/04/14 08:27:02;;;;;;;;;;;15.50;99.90;;;;;;5091730;28;20040;-72
2022/04/14 08:29:29;;;;;;;;;;;16.00;99.60;;;;;;5088474;28;20757;-71
2022/04/14 08:31:55;;;;;;;;;;;16.70;98.40;;;;;;5087534;28;19904;-72
2022/04/14 08:34:21;;;;;;;;;;;17.90;95.80;;;;;;5087829;28;19918;-71
2022/04/14 08:36:46;;;;;;;;;;;17.70;97.80;;;;;;5070677;28;20690;-72
2022/04/14 08:39:12;;;;;;;;;;;17.90;98.80;;;;;;5089000;28;19915;-72
2022/04/14 08:41:44;;;;;;;10.80;6.77;;;18.30;99.90;;;;;;5089207;28;20242;-73
2022/04/14 08:44:10;;;;;;;11.90;6.88;;;19.40;99.90;;;;;;5069942;28;20421;-72
2022/04/14 08:46:38;;;;;;;11.23;7.20;;;23.00;76.50;;;;;;5087577;28;20422;-73
2022/04/14 08:49:04;;;;;;;11.15;6.60;;;25.10;62.90;;;;;;5082885;28;20452;-72
2022/04/14 08:51:35;;;;;;;;;;;26.60;55.70;;;;;;5091080;28;20036;-72
2022/04/14 08:54:01;;;;;;;;;;;25.90;62.10;;;;;;5072047;28;19912;-72
2022/04/14 08:56:28;;;;;;;;;;;25.90;64.00;;;;;;5072606;28;19908;-70
2022/04/14 08:58:55;;;;;;;;;;;29.10;47.30;;;;;;5089236;28;19914;-70
2022/04/14 09:01:20;;;;;;;;;;;27.90;53.70;;;;;;5088016;28;19963;-71
2022/04/14 09:03:46;;;;;;;;;;;27.20;59.00;;;;;;5086945;28;20313;-71
2022/04/14 09:06:12;;;;;;;;;;;27.00;63.00;;;;;;5089005;28;19954;-70
2022/04/14 09:08:38;;;;;;;;;;;27.10;65.90;;;;;;5084933;28;19908;-70
2022/04/14 09:11:06;;;;;;;;;;;27.50;69.90;;;;;;5071841;28;19916;-70
2022/04/14 09:13:32;;;;;;;;;;;28.00;70.90;;;;;;5089013;28;19958;-71
2022/04/14 09:15:57;;;;;;;;;;;28.60;73.00;;;;;;5091402;28;19955;-70
2022/04/14 09:18:23;;;;;;;;;;;28.90;73.30;;;;;;5087534;28;20333;-70
2022/04/14 09:21:01;;;;;;;;;;;29.20;74.70;;;;;;5068771;28;19912;-71
2022/04/14 09:23:27;;;;;;;;;;;29.50;74.70;;;;;;5088683;28;19915;-71
2022/04/14 09:26:13;;;;;;;;;;;29.60;75.20;;;;;;5071273;28;20002;-70
2022/04/14 09:28:40;;;;;;;;;;;29.40;76.70;;;;;;5068494;28;19920;-71
2022/04/14 09:31:10;;;;;;;;;;;28.90;76.70;;;;;;5070578;28;20353;-71
2022/04/14 09:33:46;;;;;;;;;;;29.00;79.50;;;;;;5069826;28;19916;-63
2022/04/14 09:36:14;;;;;;;;;;;29.10;78.40;;;;;;5072512;28;20269;-69
2022/04/14 09:38:49;;;;;;;;;;;28.90;71.10;;;;;;5088886;28;19908;-65
2022/04/14 09:41:28;;;;;;;;;;;28.50;72.30;;;;;;5090319;28;20327;-66
2022/04/14 09:43:54;;;;;;;;;;;27.90;74.90;;;;;;5085746;28;20345;-67
2022/04/14 09:46:20;;;;;;;;;;;27.30;70.30;;;;;;5070376;28;19916;-67
2022/04/14 09:49:03;;;;;;;;;;;26.70;71.80;;;;;;5070378;28;19927;-68
2022/04/14 09:51:28;;;;;;;;;;;26.10;64.70;;;;;;5088838;28;19920;-68
2022/04/14 09:54:04;;;;;;;;;;;25.50;71.60;;;;;;5069614;28;19999;-70
2022/04/14 09:56:51;;;;;;;;;;;25.10;75.50;;;;;;5087319;28;20363;-63
2022/04/14 09:59:20;;;;;;;;;;;24.80;77.00;;;;;;5081901;28;19908;-66
2022/04/14 10:01:46;;;;;;;;;;;24.50;76.00;;;;;;5085874;28;20250;-67
2022/04/14 10:04:27;;;;;;;;;;;24.20;75.90;;;;;;5086998;28;19957;-69
2022/04/14 10:07:03;;;;;;;;;;;24.00;75.50;;;;;;5090446;28;19918;-68
2022/04/14 10:09:30;;;;;;;;;;;23.80;75.90;;;;;;5067320;28;20019;-67
2022/04/14 10:11:56;;;;;;;;;;;23.60;73.50;;;;;;5085975;28;19943;-68
2022/04/14 10:14:24;;;;;;;;;;;23.40;75.90;;;;;;5069751;28;19996;-72
2022/04/14 10:16:50;;;;;;;;;;;23.30;74.70;;;;;;5063982;28;20844;-67
2022/04/14 10:19:15;;;;;;;;;;;23.20;75.60;;;;;;5087902;28;19916;-66
2022/04/14 10:21:43;;;;;;;;;;;23.20;74.60;;;;;;5086035;28;19908;-68
2022/04/14 10:24:09;;;;;;;;;;;23.20;76.10;;;;;;5087210;28;19911;-69
2022/04/14 10:26:35;;;;;;;;;;;23.20;75.60;;;;;;5087423;28;19916;-72
2022/04/14 10:29:03;;;;;;;;;;;23.30;73.90;;;;;;5089055;28;19908;-69
2022/04/14 10:31:30;;;;;;;;;;;23.30;74.20;;;;;;5085345;28;20004;-66
2022/04/14 10:33:57;;;;;;;;;;;23.30;73.20;;;;;;5069795;28;21732;-67
2022/04/14 10:36:23;;;;;;;;;;;23.30;71.20;;;;;;5084883;28;19951;-66
2022/04/14 10:38:49;;;;;;;;;;;23.30;72.90;;;;;;5088902;28;19912;-69
2022/04/14 10:41:22;;;;;;;;;;;23.40;74.60;;;;;;5086321;28;19916;-68
2022/04/14 10:43:48;;;;;;;;;;;23.50;71.70;;;;;;5087693;28;19967;-70
2022/04/14 10:46:17;;;;;;;;;;;23.50;68.90;;;;;;5087443;28;19916;-68
2022/04/14 10:48:46;;;;;;;;;;;23.50;70.30;;;;;;5088139;28;19962;-69
2022/04/14 10:51:26;;;;;;;;;;;23.50;72.10;;;;;;5086549;28;19912;-72
2022/04/14 10:54:00;;;;;;;;;;;23.50;72.60;;;;;;5088249;28;19915;-68
2022/04/14 10:56:45;;;;;;;;;;;23.60;75.20;;;;;;5087113;28;20356;-68
2022/04/14 10:59:14;;;;;;;;;;;23.70;75.00;;;;;;5084803;28;19912;-70
2022/04/14 11:01:52;;;;;;;;;;;23.80;74.80;;;;;;5086291;28;20641;-71
2022/04/14 11:04:32;;;;;;;;;;;24.20;73.20;;;;;;5089354;28;19911;-69
2022/04/14 11:07:17;;;;;;;;;;;26.60;53.30;;;;;;5068649;28;19950;-66
2022/04/14 11:09:42;;;;;;;;;;;26.20;57.30;;;;;;5086363;28;19919;-68
2022/04/14 11:12:11;;;;;;;;;;;26.00;59.20;;;;;;5085439;28;19916;-66
2022/04/14 11:14:37;;;;;;;;;;;26.20;60.50;;;;;;5088678;28;19912;-68
2022/04/14 11:17:03;;;;;;;;;;;26.50;62.70;;;;;;5088152;28;20373;-66
2022/04/14 11:19:29;;;;;;;;;;;26.70;62.30;;;;;;5084123;28;19927;-65
2022/04/14 11:21:58;;;;;;;;;;;26.80;64.60;;;;;;5085821;28;20333;-68
2022/04/14 11:24:35;;;;;;;;;;;26.80;64.20;;;;;;5087324;28;19916;-66
2022/04/14 11:27:17;;;;;;;;;;;27.10;64.30;;;;;;5085528;28;19920;-69
2022/04/14 11:29:47;;;;;;;;;;;27.40;60.90;;;;;;5068751;28;20365;-66
2022/04/14 11:32:13;;;;;;;;;;;27.70;62.30;;;;;;5085694;28;19950;-68
2022/04/14 11:34:40;;;;;;;;;;;27.90;62.60;;;;;;5086121;28;19930;-68
2022/04/14 11:37:24;;;;;;;;;;;28.20;61.70;;;;;;5064711;28;19920;-66
2022/04/14 11:40:08;;;;;;;;;;;28.50;57.80;;;;;;5088947;28;19920;-69
2022/04/14 11:42:35;;;;;;;;;;;28.80;61.00;;;;;;5069883;28;19912;-64
2022/04/14 11:45:00;;;;;;;;;;;29.10;61.60;;;;;;5089245;28;19912;-67
2022/04/14 11:47:27;;;;;;;;;;;29.40;60.50;;;;;;5088804;28;20419;-65
2022/04/14 11:49:53;;;;;;;;;;;29.80;57.40;;;;;;5086057;28;19930;-66
2022/04/14 11:52:20;;;;;;;;;;;30.10;53.40;;;;;;5084739;28;19912;-67
2022/04/14 11:54:46;;;;;;;;;;;30.40;49.60;;;;;;5092432;28;19919;-69
2022/04/14 11:57:13;;;;;;;;;;;30.50;56.70;;;;;;5071647;28;19924;-65
2022/04/14 11:59:42;;;;;;;;;;;30.50;58.10;;;;;;5087533;28;19912;-67
2022/04/14 12:02:09;;;;;;;;;;;30.40;58.90;;;;;;5087347;28;20384;-68
2022/04/14 12:04:36;;;;;;;;;;;30.50;58.30;;;;;;5092817;28;20416;-66
2022/04/14 12:07:01;;;;;;;;;;;30.60;60.10;;;;;;5090399;28;19934;-69
2022/04/14 12:09:27;;;;;;;;;;;30.60;59.20;;;;;;5090506;28;20002;-68
2022/04/14 12:11:53;;;;;;;;;;;30.50;58.00;;;;;;5073346;28;19912;-64
2022/04/14 12:14:19;;;;;;;;;;;30.50;59.10;;;;;;5088749;28;19916;-66
2022/04/14 12:16:48;;;;;;;;;;;30.50;57.90;;;;;;5091291;28;20011;-65
2022/04/14 12:19:13;;;;;;;;;;;30.50;58.20;;;;;;5073380;28;19913;-67
2022/04/14 12:21:39;;;;;;;;;;;30.60;58.40;;;;;;5090196;28;19927;-68
2022/04/14 12:24:05;;;;;;;;;;;30.80;57.90;;;;;;5091319;28;19912;-68
2022/04/14 12:26:32;;;;;;;;;;;30.90;57.60;;;;;;5086940;28;19924;-68
2022/04/14 12:28:58;;;;;;;;;;;30.90;57.40;;;;;;5090774;28;20030;-69
2022/04/14 12:31:28;;;;;;;;;;;31.10;58.40;;;;;;5088091;28;20019;-69
2022/04/14 12:33:55;;;;;;;;;;;31.40;58.00;;;;;;5073476;28;19973;-68
2022/04/14 12:36:31;;;;;;;;;;;31.50;57.20;;;;;;5085469;28;19923;-67
2022/04/14 12:38:56;;;;;;;;;;;31.70;54.70;;;;;;5087376;28;19916;-67
2022/04/14 12:41:22;;;;;;;;;;;31.70;55.80;;;;;;5072725;28;20376;-67
2022/04/14 12:43:49;;;;;;;;;;;31.60;56.90;;;;;;5089506;28;19916;-64
2022/04/14 12:46:21;;;;;;;;;;;31.40;56.50;;;;;;5088352;28;19927;-65
2022/04/14 12:48:47;;;;;;;;;;;31.30;57.90;;;;;;5087926;28;19924;-69
2022/04/14 12:51:12;;;;;;;;;;;31.30;58.30;;;;;;5087492;28;19912;-68
2022/04/14 12:53:38;;;;;;;;;;;31.20;56.70;;;;;;5086248;28;20265;-69
2022/04/14 12:56:14;;;;;;;;;;;31.10;53.80;;;;;;5088126;28;20365;-66
2022/04/14 12:58:40;;;;;;;;;;;30.90;54.70;;;;;;5068982;28;19973;-68
2022/04/14 13:01:07;;;;;;;;;;;30.70;56.30;;;;;;5088600;28;20007;-67
2022/04/14 13:03:50;;;;;;;;;;;30.50;57.70;;;;;;5091424;28;19958;-65
2022/04/14 13:06:16;;;;;;;;;;;30.20;52.40;;;;;;5070491;28;19954;-71
2022/04/14 13:08:42;;;;;;;;;;;30.10;56.10;;;;;;5090954;28;19958;-67
2022/04/14 13:11:07;;;;;;;;;;;30.10;56.80;;;;;;5086958;28;20404;-67
2022/04/14 13:13:33;;;;;;;;;;;30.10;56.40;;;;;;5090545;28;19977;-68
2022/04/14 13:15:59;;;;;;;;;;;30.20;56.30;;;;;;5085723;28;20281;-67
2022/04/14 13:18:25;;;;;;;;;;;30.10;55.30;;;;;;5072898;28;19963;-67
2022/04/14 13:20:50;;;;;;;;;;;29.90;51.90;;;;;;5089130;28;19912;-69
2022/04/14 13:23:19;;;;;;;;;;;29.70;54.50;;;;;;5071256;28;20388;-67
2022/04/14 13:25:46;;;;;;;;;;;29.40;53.70;;;;;;5088575;28;19916;-69
2022/04/14 13:28:11;;;;;;;;;;;29.10;54.20;;;;;;5086587;28;20053;-65
2022/04/14 13:30:37;;;;;;;;;;;28.90;54.80;;;;;;5068109;28;20006;-66
2022/04/14 13:33:03;;;;;;;;;;;28.70;55.20;;;;;;5088211;28;20468;-66
2022/04/14 13:35:29;;;;;;;;;;;28.50;55.10;;;;;;5088010;28;20285;-68
2022/04/14 13:37:55;;;;;;;;;;;28.10;55.20;;;;;;5088523;28;20361;-65
2022/04/14 13:40:20;;;;;;;;;;;27.80;55.30;;;;;;5088814;28;19927;-66
2022/04/14 13:42:46;;;;;;;;;;;27.60;55.00;;;;;;5087921;28;20011;-66
2022/04/14 13:45:11;;;;;;;;;;;27.30;55.10;;;;;;5085696;28;19923;-66
2022/04/14 13:47:39;;;;;;;;;;;27.20;54.40;;;;;;5063445;28;19923;-66
2022/04/14 13:50:06;;;;;;;;;;;27.10;55.30;;;;;;5087073;28;20259;-69
2022/04/14 13:52:32;;;;;;;;;;;26.90;54.90;;;;;;5089227;28;20015;-69
2022/04/14 13:54:58;;;;;;;;;;;26.80;54.10;;;;;;5088651;28;20007;-68